createdAt,value
2023-08-12T00:00:45.204Z,95210.00
2023-08-12T00:01:45.236Z,95208.00
2023-08-12T00:02:45.252Z,95208.00
2023-08-12T00:03:45.256Z,95208.00
2023-08-12T00:04:45.274Z,95210.00
2023-08-12T00:05:45.321Z,95208.00
2023-08-12T00:06:45.350Z,95208.00
2023-08-12T00:07:45.369Z,95204.00
2023-08-12T00:08:45.372Z,95204.00
2023-08-12T00:09:45.415Z,95204.00
2023-08-12T00:10:45.414Z,95204.00
2023-08-12T00:11:45.506Z,95204.00
2023-08-12T00:12:45.480Z,95202.00
2023-08-12T00:13:45.518Z,95200.00
2023-08-12T00:14:45.551Z,95198.00
2023-08-12T00:15:45.569Z,95198.00
2023-08-12T00:16:45.594Z,95198.00
2023-08-12T00:17:45.703Z,95198.00
2023-08-12T00:18:45.656Z,95196.00
2023-08-12T00:19:45.692Z,95198.00
2023-08-12T00:20:45.713Z,95198.00
2023-08-12T00:21:45.735Z,95190.00
2023-08-12T00:22:45.755Z,95190.00
2023-08-12T00:23:45.790Z,95196.00
2023-08-12T00:24:45.804Z,95188.00
2023-08-12T00:25:45.840Z,95190.00
2023-08-12T00:26:45.865Z,95188.00
2023-08-12T00:27:45.916Z,95190.00
2023-08-12T00:28:45.924Z,95188.00
2023-08-12T00:29:45.954Z,95188.00
2023-08-12T00:30:45.992Z,95188.00
2023-08-12T00:31:46.018Z,95186.00
2023-08-12T00:32:46.075Z,95190.00
2023-08-12T00:33:46.079Z,95188.00
2023-08-12T00:34:46.116Z,95186.00
2023-08-12T00:35:46.140Z,95184.00
2023-08-12T00:36:46.218Z,95186.00
2023-08-12T00:37:46.210Z,95182.00
2023-08-12T00:38:46.215Z,95186.00
2023-08-12T00:39:46.267Z,95184.00
2023-08-12T00:40:46.276Z,95184.00
2023-08-12T00:41:46.309Z,95184.00
2023-08-12T00:42:46.350Z,95184.00
2023-08-12T00:43:46.386Z,95184.00
2023-08-12T00:44:46.419Z,95180.00
2023-08-12T00:45:46.433Z,95180.00
2023-08-12T00:46:46.518Z,95182.00
2023-08-12T00:47:46.558Z,95180.00
2023-08-12T00:48:46.545Z,95182.00
2023-08-12T00:49:46.626Z,95182.00
2023-08-12T00:50:46.619Z,95184.00
2023-08-12T00:51:46.694Z,95184.00
2023-08-12T00:52:46.729Z,95186.00
2023-08-12T00:53:46.727Z,95184.00
2023-08-12T00:54:46.767Z,95180.00
2023-08-12T00:55:46.837Z,95182.00
2023-08-12T00:56:46.825Z,95182.00
2023-08-12T00:57:46.882Z,95182.00
2023-08-12T00:58:47.046Z,95182.00
2023-08-12T00:59:46.945Z,95180.00
2023-08-12T01:00:46.984Z,95182.00
2023-08-12T01:01:47.061Z,95182.00
2023-08-12T01:02:47.237Z,95180.00
2023-08-12T01:03:47.184Z,95180.00
2023-08-12T01:04:47.130Z,95180.00
2023-08-12T01:05:47.160Z,95178.00
2023-08-12T01:06:47.211Z,95178.00
2023-08-12T01:07:47.236Z,95178.00
2023-08-12T01:08:47.265Z,95178.00
2023-08-12T01:09:47.314Z,95178.00
2023-08-12T01:10:47.362Z,95180.00
2023-08-12T01:11:47.372Z,95178.00
2023-08-12T01:12:47.446Z,95180.00
2023-08-12T01:13:47.457Z,95178.00
2023-08-12T01:14:47.508Z,95178.00
2023-08-12T01:15:47.557Z,95178.00
2023-08-12T01:16:47.604Z,95180.00
2023-08-12T01:17:47.649Z,95178.00
2023-08-12T01:18:47.706Z,95180.00
2023-08-12T01:19:47.703Z,95178.00
2023-08-12T01:20:47.707Z,95178.00
2023-08-12T01:21:47.746Z,95180.00
2023-08-12T01:22:47.788Z,95180.00
2023-08-12T01:23:47.839Z,95178.00
2023-08-12T01:24:47.848Z,95174.00
2023-08-12T01:25:47.878Z,95172.00
2023-08-12T01:26:47.932Z,95172.00
2023-08-12T01:27:47.988Z,95174.00
2023-08-12T01:28:48.009Z,95176.00
2023-08-12T01:29:48.051Z,95172.00
2023-08-12T01:30:49.349Z,95172.00
2023-08-12T01:31:48.121Z,95172.00
2023-08-12T01:32:48.213Z,95170.00
2023-08-12T01:33:48.204Z,95172.00
2023-08-12T01:34:48.242Z,95170.00
2023-08-12T01:35:48.282Z,95170.00
2023-08-12T01:36:48.319Z,95170.00
2023-08-12T01:37:48.379Z,95170.00
2023-08-12T01:38:48.404Z,95167.00
2023-08-12T01:39:48.424Z,95167.00
2023-08-12T01:40:48.477Z,95167.00
2023-08-12T01:41:48.545Z,95165.00
2023-08-12T01:42:48.601Z,95165.00
2023-08-12T01:43:48.595Z,95163.00
2023-08-12T01:44:48.654Z,95163.00
2023-08-12T01:45:48.707Z,95161.00
2023-08-12T01:46:48.709Z,95165.00
2023-08-12T01:47:48.812Z,95163.00
2023-08-12T01:48:48.821Z,95165.00
2023-08-12T01:49:48.870Z,95165.00
2023-08-12T01:50:48.902Z,95165.00
2023-08-12T01:51:48.940Z,95157.00
2023-08-12T01:52:49.015Z,95159.00
2023-08-12T01:53:49.047Z,95165.00
2023-08-12T01:54:49.075Z,95157.00
2023-08-12T01:55:49.116Z,95159.00
2023-08-12T01:56:49.136Z,95159.00
2023-08-12T01:57:49.204Z,95159.00
2023-08-12T01:58:49.235Z,95159.00
2023-08-12T01:59:49.297Z,95159.00
2023-08-12T02:00:49.356Z,95161.00
2023-08-12T02:01:49.421Z,95159.00
2023-08-12T02:02:49.477Z,95159.00
2023-08-12T02:03:49.522Z,95159.00
2023-08-12T02:04:49.498Z,95159.00
2023-08-12T02:05:49.580Z,95159.00
2023-08-12T02:06:49.588Z,95159.00
2023-08-12T02:07:49.719Z,95159.00
2023-08-12T02:08:49.718Z,95157.00
2023-08-12T02:09:49.727Z,95155.00
2023-08-12T02:10:49.831Z,95155.00
2023-08-12T02:11:49.845Z,95153.00
2023-08-12T02:12:49.879Z,95151.00
2023-08-12T02:13:49.949Z,95151.00
2023-08-12T02:14:50.004Z,95149.00
2023-08-12T02:15:50.130Z,95149.00
2023-08-12T02:16:50.076Z,95147.00
2023-08-12T02:17:50.167Z,95151.00
2023-08-12T02:18:50.223Z,95149.00
2023-08-12T02:19:50.257Z,95149.00
2023-08-12T02:20:50.289Z,95149.00
2023-08-12T02:21:50.343Z,95137.00
2023-08-12T02:22:50.404Z,95147.00
2023-08-12T02:23:50.456Z,95147.00
2023-08-12T02:24:50.516Z,95145.00
2023-08-12T02:25:50.588Z,95147.00
2023-08-12T02:26:50.602Z,95149.00
2023-08-12T02:27:50.679Z,95149.00
2023-08-12T02:28:50.719Z,95147.00
2023-08-12T02:29:50.779Z,95147.00
2023-08-12T02:30:50.818Z,95145.00
2023-08-12T02:31:50.924Z,95145.00
2023-08-12T02:32:50.944Z,95135.00
2023-08-12T02:33:51.018Z,95135.00
2023-08-12T02:34:50.983Z,95137.00
2023-08-12T02:35:51.046Z,95135.00
2023-08-12T02:36:51.122Z,95135.00
2023-08-12T02:37:51.151Z,95137.00
2023-08-12T02:38:51.201Z,95135.00
2023-08-12T02:39:51.258Z,95137.00
2023-08-12T02:40:51.333Z,95135.00
2023-08-12T02:41:51.358Z,95133.00
2023-08-12T02:42:51.403Z,95133.00
2023-08-12T02:43:51.485Z,95131.00
2023-08-12T02:44:51.534Z,95131.00
2023-08-12T02:45:51.636Z,95129.00
2023-08-12T02:46:51.628Z,95127.00
2023-08-12T02:47:51.782Z,95129.00
2023-08-12T02:48:51.731Z,95131.00
2023-08-12T02:49:51.790Z,95131.00
2023-08-12T02:50:51.870Z,95129.00
2023-08-12T02:51:51.913Z,95131.00
2023-08-12T02:52:51.975Z,95135.00
2023-08-12T02:53:52.030Z,95131.00
2023-08-12T02:54:52.077Z,95135.00
2023-08-12T02:55:52.123Z,95137.00
2023-08-12T02:56:52.189Z,95137.00
2023-08-12T02:57:52.269Z,95137.00
2023-08-12T02:58:52.292Z,95137.00
2023-08-12T02:59:52.365Z,95145.00
2023-08-12T03:00:52.486Z,95145.00
2023-08-12T03:01:52.508Z,95145.00
2023-08-12T03:02:52.621Z,95137.00
2023-08-12T03:03:52.636Z,95137.00
2023-08-12T03:04:52.642Z,95137.00
2023-08-12T03:05:52.714Z,95137.00
2023-08-12T03:06:52.777Z,95135.00
2023-08-12T03:07:52.861Z,95135.00
2023-08-12T03:08:52.898Z,95137.00
2023-08-12T03:09:52.962Z,95133.00
2023-08-12T03:10:53.006Z,95135.00
2023-08-12T03:11:53.146Z,95133.00
2023-08-12T03:12:53.129Z,95133.00
2023-08-12T03:13:53.176Z,95133.00
2023-08-12T03:14:53.235Z,95131.00
2023-08-12T03:15:53.360Z,95131.00
2023-08-12T03:16:53.415Z,95125.00
2023-08-12T03:17:53.498Z,95129.00
2023-08-12T03:18:53.487Z,95129.00
2023-08-12T03:19:53.535Z,95121.00
2023-08-12T03:20:53.739Z,95121.00
2023-08-12T03:21:53.695Z,95121.00
2023-08-12T03:22:53.768Z,95123.00
2023-08-12T03:23:53.797Z,95125.00
2023-08-12T03:24:53.881Z,95125.00
2023-08-12T03:25:53.921Z,95125.00
2023-08-12T03:26:53.979Z,95127.00
2023-08-12T03:27:54.059Z,95125.00
2023-08-12T03:28:54.079Z,95127.00
2023-08-12T03:29:54.172Z,95127.00
2023-08-12T03:30:54.355Z,95125.00
2023-08-12T03:31:54.336Z,95127.00
2023-08-12T03:32:54.398Z,95125.00
2023-08-12T03:33:54.428Z,95127.00
2023-08-12T03:34:54.438Z,95127.00
2023-08-12T03:35:54.508Z,95127.00
2023-08-12T03:36:54.584Z,95127.00
2023-08-12T03:37:54.607Z,95123.00
2023-08-12T03:38:54.683Z,95123.00
2023-08-12T03:39:54.750Z,95125.00
2023-08-12T03:40:54.823Z,95125.00
2023-08-12T03:41:54.894Z,95127.00
2023-08-12T03:42:54.911Z,95127.00
2023-08-12T03:43:54.974Z,95125.00
2023-08-12T03:44:55.024Z,95125.00
2023-08-12T03:45:55.073Z,95125.00
2023-08-12T03:46:55.227Z,95123.00
2023-08-12T03:47:55.275Z,95123.00
2023-08-12T03:48:55.235Z,95123.00
2023-08-12T03:49:55.287Z,95121.00
2023-08-12T03:50:55.376Z,95123.00
2023-08-12T03:51:55.369Z,95123.00
2023-08-12T03:52:55.441Z,95125.00
2023-08-12T03:53:55.476Z,95125.00
2023-08-12T03:54:55.545Z,95125.00
2023-08-12T03:55:55.572Z,95127.00
2023-08-12T03:56:55.632Z,95121.00
2023-08-12T03:57:55.698Z,95125.00
2023-08-12T03:58:55.709Z,95125.00
2023-08-12T03:59:55.791Z,95121.00
2023-08-12T04:00:55.929Z,95123.00
2023-08-12T04:01:55.867Z,95121.00
2023-08-12T04:02:56.022Z,95123.00
2023-08-12T04:03:56.021Z,95121.00
2023-08-12T04:04:56.095Z,95121.00
2023-08-12T04:05:56.101Z,95121.00
2023-08-12T04:06:56.147Z,95119.00
2023-08-12T04:07:56.252Z,95119.00
2023-08-12T04:08:56.262Z,95121.00
2023-08-12T04:09:56.338Z,95121.00
2023-08-12T04:10:56.392Z,95121.00
2023-08-12T04:11:56.415Z,95123.00
2023-08-12T04:12:56.474Z,95121.00
2023-08-12T04:13:56.570Z,95119.00
2023-08-12T04:14:56.599Z,95121.00
2023-08-12T04:15:56.673Z,95119.00
2023-08-12T04:16:56.773Z,95119.00
2023-08-12T04:17:56.833Z,95117.00
2023-08-12T04:18:56.878Z,95121.00
2023-08-12T04:19:56.944Z,95119.00
2023-08-12T04:20:56.942Z,95119.00
2023-08-12T04:21:56.981Z,95121.00
2023-08-12T04:22:57.049Z,95121.00
2023-08-12T04:23:57.091Z,95117.00
2023-08-12T04:24:57.136Z,95117.00
2023-08-12T04:25:57.213Z,95117.00
2023-08-12T04:26:57.235Z,95117.00
2023-08-12T04:27:57.308Z,95119.00
2023-08-12T04:28:57.368Z,95121.00
2023-08-12T04:29:57.421Z,95123.00
2023-08-12T04:30:57.517Z,95125.00
2023-08-12T04:31:57.582Z,95127.00
2023-08-12T04:32:57.624Z,95129.00
2023-08-12T04:33:57.681Z,95131.00
2023-08-12T04:34:57.690Z,95131.00
2023-08-12T04:35:57.758Z,95133.00
2023-08-12T04:36:57.830Z,95131.00
2023-08-12T04:37:59.673Z,95131.00
2023-08-12T04:38:57.845Z,95129.00
2023-08-12T04:39:57.855Z,95129.00
2023-08-12T04:40:57.873Z,95129.00
2023-08-12T04:41:57.820Z,95129.00
2023-08-12T04:42:57.847Z,95129.00
2023-08-12T04:43:57.809Z,95127.00
2023-08-12T04:44:57.822Z,95129.00
2023-08-12T04:45:57.851Z,95129.00
2023-08-12T04:46:57.789Z,95129.00
2023-08-12T04:47:57.898Z,95125.00
2023-08-12T04:48:57.801Z,95127.00
2023-08-12T04:49:57.778Z,95123.00
2023-08-12T04:50:57.791Z,95123.00
2023-08-12T04:51:57.780Z,95121.00
2023-08-12T04:52:57.740Z,95123.00
2023-08-12T04:53:57.759Z,95125.00
2023-08-12T04:54:57.737Z,95125.00
2023-08-12T04:55:57.763Z,95121.00
2023-08-12T04:56:57.751Z,95121.00
2023-08-12T04:57:57.759Z,95123.00
2023-08-12T04:58:57.705Z,95125.00
2023-08-12T04:59:57.733Z,95125.00
2023-08-12T05:00:57.708Z,95125.00
2023-08-12T05:02:04.585Z,95129.00
2023-08-12T05:02:58.781Z,95127.00
2023-08-12T05:03:57.690Z,95129.00
2023-08-12T05:04:57.741Z,95127.00
2023-08-12T05:05:57.665Z,95129.00
2023-08-12T05:06:57.682Z,95131.00
2023-08-12T05:07:57.670Z,95131.00
2023-08-12T05:08:57.669Z,95129.00
2023-08-12T05:09:57.654Z,95131.00
2023-08-12T05:10:57.671Z,95129.00
2023-08-12T05:11:57.637Z,95127.00
2023-08-12T05:12:57.631Z,95133.00
2023-08-12T05:13:57.630Z,95131.00
2023-08-12T05:14:57.644Z,95131.00
2023-08-12T05:15:57.646Z,95133.00
2023-08-12T05:16:57.636Z,95131.00
2023-08-12T05:17:57.678Z,95131.00
2023-08-12T05:18:57.647Z,95131.00
2023-08-12T05:19:57.646Z,95131.00
2023-08-12T05:20:57.634Z,95127.00
2023-08-12T05:21:57.632Z,95127.00
2023-08-12T05:22:57.648Z,95129.00
2023-08-12T05:23:57.692Z,95129.00
2023-08-12T05:24:57.722Z,95125.00
2023-08-12T05:25:57.757Z,95127.00
2023-08-12T05:26:57.750Z,95125.00
2023-08-12T05:27:57.780Z,95125.00
2023-08-12T05:28:57.852Z,95129.00
2023-08-12T05:29:57.877Z,95131.00
2023-08-12T05:30:57.931Z,95129.00
2023-08-12T05:31:57.996Z,95131.00
2023-08-12T05:32:58.060Z,95129.00
2023-08-12T05:33:58.018Z,95129.00
2023-08-12T05:34:57.974Z,95127.00
2023-08-12T05:35:58.016Z,95125.00
2023-08-12T05:36:58.047Z,95129.00
2023-08-12T05:37:58.031Z,95129.00
2023-08-12T05:38:58.090Z,95129.00
2023-08-12T05:39:58.070Z,95129.00
2023-08-12T05:40:58.092Z,95129.00
2023-08-12T05:41:58.119Z,95127.00
2023-08-12T05:42:58.115Z,95129.00
2023-08-12T05:43:58.109Z,95127.00
2023-08-12T05:44:58.100Z,95127.00
2023-08-12T05:45:58.118Z,95125.00
2023-08-12T05:46:58.100Z,95127.00
2023-08-12T05:47:58.160Z,95125.00
2023-08-12T05:48:58.105Z,95125.00
2023-08-12T05:49:58.085Z,95123.00
2023-08-12T05:50:58.094Z,95123.00
2023-08-12T05:51:58.093Z,95125.00
2023-08-12T05:52:58.120Z,95127.00
2023-08-12T05:53:58.126Z,95125.00
2023-08-12T05:54:58.168Z,95125.00
2023-08-12T05:55:58.236Z,95125.00
2023-08-12T05:56:58.292Z,95125.00
2023-08-12T05:57:58.362Z,95125.00
2023-08-12T05:58:58.379Z,95125.00
2023-08-12T05:59:58.407Z,95123.00
2023-08-12T06:00:58.438Z,95125.00
2023-08-12T06:01:58.416Z,95123.00
2023-08-12T06:02:58.437Z,95125.00
2023-08-12T06:03:58.481Z,95123.00
2023-08-12T06:04:58.410Z,95121.00
2023-08-12T06:05:58.424Z,95121.00
2023-08-12T06:06:58.409Z,95119.00
2023-08-12T06:07:58.431Z,95117.00
2023-08-12T06:08:58.410Z,95115.00
2023-08-12T06:09:58.424Z,95117.00
2023-08-12T06:10:58.432Z,95117.00
2023-08-12T06:11:58.415Z,95117.00
2023-08-12T06:12:58.402Z,95117.00
2023-08-12T06:13:58.413Z,95119.00
2023-08-12T06:14:58.405Z,95121.00
2023-08-12T06:15:58.413Z,95117.00
2023-08-12T06:16:59.484Z,95119.00
2023-08-12T06:17:58.387Z,95121.00
2023-08-12T06:18:58.399Z,95119.00
2023-08-12T06:19:58.411Z,95117.00
2023-08-12T06:20:58.397Z,95115.00
2023-08-12T06:21:58.401Z,95115.00
2023-08-12T06:22:58.405Z,95111.00
2023-08-12T06:23:58.373Z,95111.00
2023-08-12T06:24:58.380Z,95111.00
2023-08-12T06:25:58.377Z,95111.00
2023-08-12T06:26:58.461Z,95108.00
2023-08-12T06:27:58.423Z,95108.00
2023-08-12T06:28:58.379Z,95111.00
2023-08-12T06:29:58.387Z,95108.00
2023-08-12T06:30:58.399Z,95108.00
2023-08-12T06:31:58.423Z,95106.00
2023-08-12T06:32:58.540Z,95102.00
2023-08-12T06:33:58.526Z,95104.00
2023-08-12T06:34:58.593Z,95100.00
2023-08-12T06:35:58.669Z,95096.00
2023-08-12T06:36:58.743Z,95098.00
2023-08-12T06:37:58.793Z,95094.00
2023-08-12T06:38:58.856Z,95092.00
2023-08-12T06:39:58.916Z,95094.00
2023-08-12T06:40:58.962Z,95092.00
2023-08-12T06:41:59.032Z,95092.00
2023-08-12T06:42:59.036Z,95092.00
2023-08-12T06:43:59.094Z,95092.00
2023-08-12T06:44:59.146Z,95088.00
2023-08-12T06:45:59.250Z,95088.00
2023-08-12T06:46:59.320Z,95090.00
2023-08-12T06:47:59.345Z,95088.00
2023-08-12T06:48:59.375Z,95088.00
2023-08-12T06:49:59.407Z,95086.00
2023-08-12T06:50:59.514Z,95082.00
2023-08-12T06:51:59.546Z,95082.00
2023-08-12T06:52:59.595Z,95082.00
2023-08-12T06:53:59.677Z,95082.00
2023-08-12T06:54:59.708Z,95078.00
2023-08-12T06:55:59.792Z,95078.00
2023-08-12T06:56:59.830Z,95072.00
2023-08-12T06:57:59.901Z,95074.00
2023-08-12T06:58:59.935Z,95076.00
2023-08-12T06:59:59.986Z,95072.00
2023-08-12T07:01:00.045Z,95072.00
2023-08-12T07:01:59.998Z,95074.00
2023-08-12T07:03:00.033Z,95072.00
2023-08-12T07:04:00.085Z,95070.00
2023-08-12T07:05:00.033Z,95070.00
2023-08-12T07:06:00.010Z,95066.00
2023-08-12T07:07:00.023Z,95066.00
2023-08-12T07:08:00.056Z,95066.00
2023-08-12T07:09:00.009Z,95064.00
2023-08-12T07:10:00.038Z,95062.00
2023-08-12T07:11:00.047Z,95060.00
2023-08-12T07:12:00.070Z,95064.00
2023-08-12T07:13:00.093Z,95060.00
2023-08-12T07:14:00.112Z,95062.00
2023-08-12T07:15:00.165Z,95060.00
2023-08-12T07:16:00.186Z,95060.00
2023-08-12T07:17:00.171Z,95062.00
2023-08-12T07:18:00.264Z,95064.00
2023-08-12T07:19:00.176Z,95064.00
2023-08-12T07:20:00.236Z,95064.00
2023-08-12T07:21:00.247Z,95062.00
2023-08-12T07:22:00.197Z,95060.00
2023-08-12T07:23:00.181Z,95062.00
2023-08-12T07:25:00.280Z,95062.00
2023-08-12T07:26:00.180Z,95062.00
2023-08-12T07:27:00.173Z,95060.00
2023-08-12T07:28:00.159Z,95060.00
2023-08-12T07:29:00.159Z,95060.00
2023-08-12T07:30:00.198Z,95059.00
2023-08-12T07:31:00.158Z,95059.00
2023-08-12T07:32:00.133Z,95059.00
2023-08-12T07:33:00.136Z,95059.00
2023-08-12T07:34:00.135Z,95057.00
2023-08-12T07:35:00.143Z,95059.00
2023-08-12T07:36:00.109Z,95059.00
2023-08-12T07:37:00.091Z,95060.00
2023-08-12T07:38:00.107Z,95057.00
2023-08-12T07:39:00.071Z,95057.00
2023-08-12T07:40:00.088Z,95057.00
2023-08-12T07:41:00.063Z,95053.00
2023-08-12T07:42:00.078Z,95053.00
2023-08-12T07:43:00.045Z,95051.00
2023-08-12T07:44:00.058Z,95049.00
2023-08-12T07:45:00.119Z,95051.00
2023-08-12T07:46:09.494Z,95051.00
2023-08-12T07:47:01.091Z,95049.00
2023-08-12T07:48:00.071Z,95047.00
2023-08-12T07:49:00.025Z,95047.00
2023-08-12T07:50:00.032Z,95041.00
2023-08-12T07:51:00.012Z,95039.00
2023-08-12T07:52:00.001Z,95041.00
2023-08-12T07:52:59.988Z,95041.00
2023-08-12T07:54:00.010Z,95041.00
2023-08-12T07:54:59.968Z,95043.00
2023-08-12T07:55:59.973Z,95043.00
2023-08-12T07:56:59.957Z,95039.00
2023-08-12T07:57:59.966Z,95037.00
2023-08-12T07:58:59.993Z,95037.00
2023-08-12T07:59:59.960Z,95037.00
2023-08-12T08:00:59.975Z,95037.00
2023-08-12T08:02:00.025Z,95037.00
2023-08-12T08:02:59.958Z,95033.00
2023-08-12T08:03:59.927Z,95035.00
2023-08-12T08:04:59.957Z,95035.00
2023-08-12T08:05:59.897Z,95035.00
2023-08-12T08:06:59.922Z,95037.00
2023-08-12T08:07:59.900Z,95033.00
2023-08-12T08:08:59.929Z,95033.00
2023-08-12T08:09:59.870Z,95033.00
2023-08-12T08:10:59.896Z,95029.00
2023-08-12T08:11:59.876Z,95033.00
2023-08-12T08:12:59.877Z,95029.00
2023-08-12T08:13:59.864Z,95029.00
2023-08-12T08:14:59.869Z,95025.00
2023-08-12T08:15:59.882Z,95025.00
2023-08-12T08:16:59.931Z,95023.00
2023-08-12T08:18:59.852Z,95025.00
2023-08-12T08:19:59.915Z,95023.00
2023-08-12T08:22:00.946Z,95017.00
2023-08-12T08:22:59.973Z,95017.00
2023-08-12T08:23:59.951Z,95017.00
2023-08-12T08:24:59.954Z,95021.00
2023-08-12T08:26:00.895Z,95021.00
2023-08-12T08:26:59.925Z,95017.00
2023-08-12T08:27:59.921Z,95023.00
2023-08-12T08:28:59.933Z,95021.00
2023-08-12T08:29:59.913Z,95019.00
2023-08-12T08:30:59.982Z,95019.00
2023-08-12T08:31:59.999Z,95017.00
2023-08-12T08:33:00.098Z,95019.00
2023-08-12T08:34:00.144Z,95015.00
2023-08-12T08:35:00.267Z,95019.00
2023-08-12T08:36:00.230Z,95017.00
2023-08-12T08:37:00.297Z,95015.00
2023-08-12T08:38:00.331Z,95017.00
2023-08-12T08:39:00.436Z,95017.00
2023-08-12T08:40:00.472Z,95015.00
2023-08-12T08:41:00.526Z,95017.00
2023-08-12T08:42:00.560Z,95017.00
2023-08-12T08:43:00.632Z,95017.00
2023-08-12T08:44:00.676Z,95017.00
2023-08-12T08:45:00.755Z,95017.00
2023-08-12T08:46:00.821Z,95013.00
2023-08-12T08:47:00.844Z,95015.00
2023-08-12T08:48:00.902Z,95013.00
2023-08-12T08:49:00.967Z,95012.00
2023-08-12T08:50:00.996Z,95015.00
2023-08-12T08:51:01.058Z,95015.00
2023-08-12T08:52:01.068Z,95017.00
2023-08-12T08:53:01.136Z,95019.00
2023-08-12T08:54:03.792Z,95015.00
2023-08-12T08:55:03.319Z,95019.00
2023-08-12T08:56:01.728Z,95015.00
2023-08-12T08:57:06.903Z,95015.00
2023-08-12T08:58:05.508Z,95019.00
2023-08-12T08:59:01.129Z,95019.00
2023-08-12T09:00:01.182Z,95017.00
2023-08-12T09:01:01.144Z,95017.00
2023-08-12T09:02:01.161Z,95015.00
2023-08-12T09:03:01.197Z,95012.00
2023-08-12T09:04:01.088Z,95008.00
2023-08-12T09:05:01.151Z,95012.00
2023-08-12T09:06:01.095Z,95010.00
2023-08-12T09:07:01.086Z,95008.00
2023-08-12T09:08:01.065Z,95010.00
2023-08-12T09:09:01.076Z,95006.00
2023-08-12T09:10:01.076Z,95006.00
2023-08-12T09:11:01.068Z,95004.00
2023-08-12T09:12:01.039Z,95000.00
2023-08-12T09:13:01.104Z,94998.00
2023-08-12T09:14:01.044Z,95002.00
2023-08-12T09:15:01.082Z,95000.00
2023-08-12T09:16:01.120Z,94998.00
2023-08-12T09:17:01.036Z,94998.00
2023-08-12T09:18:01.052Z,94998.00
2023-08-12T09:19:01.019Z,94994.00
2023-08-12T09:20:01.013Z,94992.00
2023-08-12T09:21:01.014Z,94992.00
2023-08-12T09:22:00.997Z,94990.00
2023-08-12T09:23:00.999Z,94994.00
2023-08-12T09:24:00.984Z,94994.00
2023-08-12T09:25:00.974Z,94992.00
2023-08-12T09:26:00.969Z,94994.00
2023-08-12T09:27:00.976Z,94988.00
2023-08-12T09:28:00.984Z,94988.00
2023-08-12T09:29:00.955Z,94988.00
2023-08-12T09:30:00.982Z,94986.00
2023-08-12T09:31:00.984Z,94986.00
2023-08-12T09:32:01.030Z,94984.00
2023-08-12T09:33:01.064Z,94986.00
2023-08-12T09:34:01.019Z,94982.00
2023-08-12T09:35:01.023Z,94982.00
2023-08-12T09:36:01.068Z,94982.00
2023-08-12T09:37:01.041Z,94974.00
2023-08-12T09:38:01.040Z,94980.00
2023-08-12T09:39:01.049Z,94974.00
2023-08-12T09:40:01.050Z,94976.00
2023-08-12T09:41:01.029Z,94974.00
2023-08-12T09:42:01.051Z,94972.00
2023-08-12T09:43:01.013Z,94974.00
2023-08-12T09:44:01.038Z,94972.00
2023-08-12T09:45:01.030Z,94972.00
2023-08-12T09:46:01.035Z,94968.00
2023-08-12T09:47:01.024Z,94968.00
2023-08-12T09:48:01.126Z,94965.00
2023-08-12T09:49:01.044Z,94968.00
2023-08-12T09:50:00.998Z,94963.00
2023-08-12T09:51:01.041Z,94965.00
2023-08-12T09:52:01.010Z,94963.00
2023-08-12T09:53:00.999Z,94961.00
2023-08-12T09:54:01.013Z,94961.00
2023-08-12T09:55:01.017Z,94957.00
2023-08-12T09:56:01.013Z,94959.00
2023-08-12T09:57:01.033Z,94957.00
2023-08-12T09:58:00.981Z,94957.00
2023-08-12T09:59:00.984Z,94959.00
2023-08-12T10:00:00.973Z,94957.00
2023-08-12T10:01:00.989Z,94955.00
2023-08-12T10:02:00.993Z,94953.00
2023-08-12T10:03:01.004Z,94949.00
2023-08-12T10:04:01.028Z,94953.00
2023-08-12T10:05:00.960Z,94951.00
2023-08-12T10:06:00.994Z,94949.00
2023-08-12T10:07:01.038Z,94947.00
2023-08-12T10:08:00.980Z,94949.00
2023-08-12T10:09:00.967Z,94947.00
2023-08-12T10:10:01.015Z,94945.00
2023-08-12T10:11:12.440Z,94941.00
2023-08-12T10:12:01.958Z,94941.00
2023-08-12T10:13:00.963Z,94941.00
2023-08-12T10:14:00.984Z,94941.00
2023-08-12T10:15:00.953Z,94937.00
2023-08-12T10:16:00.982Z,94935.00
2023-08-12T10:17:05.574Z,94933.00
2023-08-12T10:18:01.979Z,94931.00
2023-08-12T10:19:00.930Z,94931.00
2023-08-12T10:20:01.005Z,94929.00
2023-08-12T10:21:00.925Z,94927.00
2023-08-12T10:22:00.920Z,94933.00
2023-08-12T10:23:00.900Z,94927.00
2023-08-12T10:24:00.876Z,94929.00
2023-08-12T10:25:00.873Z,94927.00
2023-08-12T10:26:00.912Z,94929.00
2023-08-12T10:27:00.855Z,94927.00
2023-08-12T10:28:00.901Z,94925.00
2023-08-12T10:29:00.858Z,94925.00
2023-08-12T10:30:00.893Z,94921.00
2023-08-12T10:31:00.848Z,94921.00
2023-08-12T10:32:00.837Z,94921.00
2023-08-12T10:33:00.865Z,94921.00
2023-08-12T10:34:00.827Z,94918.00
2023-08-12T10:35:00.824Z,94914.00
2023-08-12T10:36:00.827Z,94914.00
2023-08-12T10:37:03.421Z,94910.00
2023-08-12T10:38:00.800Z,94910.00
2023-08-12T10:39:00.781Z,94906.00
2023-08-12T10:40:00.813Z,94904.00
2023-08-12T10:41:00.780Z,94902.00
2023-08-12T10:42:00.809Z,94898.00
2023-08-12T10:43:00.795Z,94900.00
2023-08-12T10:44:00.786Z,94900.00
2023-08-12T10:45:00.736Z,94896.00
2023-08-12T10:46:00.753Z,94892.00
2023-08-12T10:47:00.841Z,94892.00
2023-08-12T10:48:00.815Z,94888.00
2023-08-12T10:49:00.768Z,94888.00
2023-08-12T10:50:00.731Z,94878.00
2023-08-12T10:51:00.755Z,94880.00
2023-08-12T10:52:00.732Z,94876.00
2023-08-12T10:53:00.696Z,94874.00
2023-08-12T10:54:00.711Z,94872.00
2023-08-12T10:55:00.719Z,94872.00
2023-08-12T10:56:00.698Z,94870.00
2023-08-12T10:57:00.668Z,94870.00
2023-08-12T10:58:00.686Z,94866.00
2023-08-12T10:59:00.708Z,94865.00
2023-08-12T11:00:00.674Z,94868.00
2023-08-12T11:01:00.723Z,94865.00
2023-08-12T11:02:00.651Z,94865.00
2023-08-12T11:03:00.731Z,94863.00
2023-08-12T11:04:00.674Z,94866.00
2023-08-12T11:05:00.625Z,94863.00
2023-08-12T11:06:00.685Z,94865.00
2023-08-12T11:07:00.642Z,94865.00
2023-08-12T11:08:00.639Z,94865.00
2023-08-12T11:09:00.603Z,94863.00
2023-08-12T11:10:00.607Z,94863.00
2023-08-12T11:11:00.594Z,94863.00
2023-08-12T11:12:00.592Z,94865.00
2023-08-12T11:13:00.610Z,94870.00
2023-08-12T11:14:00.576Z,94866.00
2023-08-12T11:15:00.608Z,94866.00
2023-08-12T11:16:00.572Z,94866.00
2023-08-12T11:17:00.694Z,94863.00
2023-08-12T11:18:00.680Z,94865.00
2023-08-12T11:19:00.753Z,94863.00
2023-08-12T11:20:00.763Z,94861.00
2023-08-12T11:21:00.810Z,94859.00
2023-08-12T11:22:00.881Z,94859.00
2023-08-12T11:23:00.924Z,94857.00
2023-08-12T11:24:00.913Z,94857.00
2023-08-12T11:25:00.942Z,94857.00
2023-08-12T11:26:00.962Z,94855.00
2023-08-12T11:27:01.048Z,94853.00
2023-08-12T11:28:01.071Z,94853.00
2023-08-12T11:29:01.063Z,94855.00
2023-08-12T11:30:01.138Z,94851.00
2023-08-12T11:31:01.208Z,94849.00
2023-08-12T11:32:01.227Z,94849.00
2023-08-12T11:33:01.282Z,94847.00
2023-08-12T11:34:01.212Z,94845.00
2023-08-12T11:35:01.220Z,94845.00
2023-08-12T11:36:01.222Z,94841.00
2023-08-12T11:37:01.256Z,94841.00
2023-08-12T11:38:01.284Z,94843.00
2023-08-12T11:39:01.304Z,94839.00
2023-08-12T11:40:01.337Z,94835.00
2023-08-12T11:41:01.364Z,94833.00
2023-08-12T11:42:01.406Z,94833.00
2023-08-12T11:43:01.439Z,94829.00
2023-08-12T11:44:01.450Z,94829.00
2023-08-12T11:45:01.515Z,94829.00
2023-08-12T11:46:01.586Z,94827.00
2023-08-12T11:47:01.563Z,94827.00
2023-08-12T11:48:01.646Z,94825.00